sensor_id;sensor_type;location;lat;lon;timestamp;P1;durP1;ratioP1;P2;durP2;ratioP2
32812;SDS011;19162;48.254;11.454;2023-01-25T00:02:39;24.33;;;21.73;;
32812;SDS011;19162;48.254;11.454;2023-01-25T00:05:39;25.63;;;23.00;;
32812;SDS011;19162;48.254;11.454;2023-01-25T00:08:39;23.33;;;21.03;;
32812;SDS011;19162;48.254;11.454;2023-01-25T00:11:40;24.17;;;21.40;;
32812;SDS011;19162;48.254;11.454;2023-01-25T00:14:40;22.55;;;20.25;;
32812;SDS011;19162;48.254;11.454;2023-01-25T00:17:40;21.25;;;19.02;;
32812;SDS011;19162;48.254;11.454;2023-01-25T00:20:40;19.33;;;17.17;;
32812;SDS011;19162;48.254;11.454;2023-01-25T00:23:40;18.83;;;16.92;;
32812;SDS011;19162;48.254;11.454;2023-01-25T00:26:41;20.73;;;18.53;;
32812;SDS011;19162;48.254;11.454;2023-01-25T00:29:42;20.08;;;17.98;;
32812;SDS011;19162;48.254;11.454;2023-01-25T00:32:47;19.65;;;17.65;;
32812;SDS011;19162;48.254;11.454;2023-01-25T00:35:48;19.52;;;17.70;;
32812;SDS011;19162;48.254;11.454;2023-01-25T00:38:48;18.43;;;16.57;;
32812;SDS011;19162;48.254;11.454;2023-01-25T00:41:48;19.20;;;17.40;;
32812;SDS011;19162;48.254;11.454;2023-01-25T00:44:48;18.50;;;16.80;;
32812;SDS011;19162;48.254;11.454;2023-01-25T00:47:49;18.67;;;16.93;;
32812;SDS011;19162;48.254;11.454;2023-01-25T00:50:52;18.70;;;16.92;;
32812;SDS011;19162;48.254;11.454;2023-01-25T00:53:53;19.48;;;17.48;;
32812;SDS011;19162;48.254;11.454;2023-01-25T00:56:53;20.42;;;18.52;;
32812;SDS011;19162;48.254;11.454;2023-01-25T00:59:55;19.23;;;17.33;;
32812;SDS011;19162;48.254;11.454;2023-01-25T01:02:55;20.73;;;18.73;;
32812;SDS011;19162;48.254;11.454;2023-01-25T01:06:02;22.35;;;20.10;;
32812;SDS011;19162;48.254;11.454;2023-01-25T01:09:03;22.83;;;20.33;;
32812;SDS011;19162;48.254;11.454;2023-01-25T01:12:04;23.95;;;21.48;;
32812;SDS011;19162;48.254;11.454;2023-01-25T01:15:04;23.67;;;21.30;;
32812;SDS011;19162;48.254;11.454;2023-01-25T01:18:04;24.50;;;21.92;;
32812;SDS011;19162;48.254;11.454;2023-01-25T01:21:05;23.52;;;21.08;;
32812;SDS011;19162;48.254;11.454;2023-01-25T01:24:05;23.85;;;21.48;;
32812;SDS011;19162;48.254;11.454;2023-01-25T01:27:06;23.83;;;21.55;;
32812;SDS011;19162;48.254;11.454;2023-01-25T01:30:06;24.10;;;21.60;;
32812;SDS011;19162;48.254;11.454;2023-01-25T01:33:07;24.52;;;22.05;;
32812;SDS011;19162;48.254;11.454;2023-01-25T01:36:11;23.50;;;21.17;;
32812;SDS011;19162;48.254;11.454;2023-01-25T01:39:11;22.55;;;20.23;;
32812;SDS011;19162;48.254;11.454;2023-01-25T01:42:12;25.27;;;22.80;;
32812;SDS011;19162;48.254;11.454;2023-01-25T01:51:51;24.73;;;22.15;;
32812;SDS011;19162;48.254;11.454;2023-01-25T01:54:54;24.77;;;22.17;;
32812;SDS011;19162;48.254;11.454;2023-01-25T01:57:56;24.63;;;22.23;;
32812;SDS011;19162;48.254;11.454;2023-01-25T02:00:57;24.10;;;21.63;;
32812;SDS011;19162;48.254;11.454;2023-01-25T02:03:57;25.90;;;23.10;;
32812;SDS011;19162;48.254;11.454;2023-01-25T02:07:02;24.83;;;22.27;;
32812;SDS011;19162;48.254;11.454;2023-01-25T02:10:05;25.52;;;22.85;;
32812;SDS011;19162;48.254;11.454;2023-01-25T02:13:06;22.83;;;20.55;;
32812;SDS011;19162;48.254;11.454;2023-01-25T02:16:09;24.33;;;21.53;;
32812;SDS011;19162;48.254;11.454;2023-01-25T02:19:12;21.35;;;19.25;;
32812;SDS011;19162;48.254;11.454;2023-01-25T02:22:16;21.63;;;19.35;;
32812;SDS011;19162;48.254;11.454;2023-01-25T02:25:19;22.10;;;19.90;;
32812;SDS011;19162;48.254;11.454;2023-01-25T02:31:26;22.35;;;20.05;;
32812;SDS011;19162;48.254;11.454;2023-01-25T02:34:26;22.30;;;20.10;;
32812;SDS011;19162;48.254;11.454;2023-01-25T02:37:26;22.95;;;20.65;;
32812;SDS011;19162;48.254;11.454;2023-01-25T02:40:27;22.85;;;20.55;;
32812;SDS011;19162;48.254;11.454;2023-01-25T02:43:28;22.25;;;20.05;;
32812;SDS011;19162;48.254;11.454;2023-01-25T02:46:29;22.27;;;19.98;;
32812;SDS011;19162;48.254;11.454;2023-01-25T02:49:33;21.20;;;19.10;;
32812;SDS011;19162;48.254;11.454;2023-01-25T02:52:33;23.20;;;20.90;;
32812;SDS011;19162;48.254;11.454;2023-01-25T02:55:33;22.13;;;19.95;;
32812;SDS011;19162;48.254;11.454;2023-01-25T02:58:33;22.67;;;20.48;;
32812;SDS011;19162;48.254;11.454;2023-01-25T03:01:34;22.27;;;19.95;;
32812;SDS011;19162;48.254;11.454;2023-01-25T03:04:34;23.02;;;20.77;;
32812;SDS011;19162;48.254;11.454;2023-01-25T03:07:35;21.70;;;19.50;;
32812;SDS011;19162;48.254;11.454;2023-01-25T03:10:35;22.70;;;20.40;;
32812;SDS011;19162;48.254;11.454;2023-01-25T03:13:35;22.48;;;20.27;;
32812;SDS011;19162;48.254;11.454;2023-01-25T03:16:35;19.87;;;17.87;;
32812;SDS011;19162;48.254;11.454;2023-01-25T03:19:35;20.17;;;18.37;;
32812;SDS011;19162;48.254;11.454;2023-01-25T03:22:36;19.58;;;17.67;;
32812;SDS011;19162;48.254;11.454;2023-01-25T03:25:36;20.15;;;18.20;;
32812;SDS011;19162;48.254;11.454;2023-01-25T03:28:37;20.42;;;18.23;;
32812;SDS011;19162;48.254;11.454;2023-01-25T03:31:37;20.48;;;18.30;;
32812;SDS011;19162;48.254;11.454;2023-01-25T03:34:37;22.90;;;20.40;;
32812;SDS011;19162;48.254;11.454;2023-01-25T03:37:38;23.33;;;21.03;;
32812;SDS011;19162;48.254;11.454;2023-01-25T03:40:38;25.13;;;22.17;;
32812;SDS011;19162;48.254;11.454;2023-01-25T03:43:38;24.63;;;21.98;;
32812;SDS011;19162;48.254;11.454;2023-01-25T03:46:39;21.02;;;18.98;;
32812;SDS011;19162;48.254;11.454;2023-01-25T03:49:39;20.98;;;18.85;;
32812;SDS011;19162;48.254;11.454;2023-01-25T03:52:40;22.33;;;20.02;;
32812;SDS011;19162;48.254;11.454;2023-01-25T03:55:44;20.75;;;18.55;;
32812;SDS011;19162;48.254;11.454;2023-01-25T03:58:44;23.13;;;20.73;;
32812;SDS011;19162;48.254;11.454;2023-01-25T04:01:44;20.75;;;18.65;;
32812;SDS011;19162;48.254;11.454;2023-01-25T04:04:45;19.70;;;17.80;;
32812;SDS011;19162;48.254;11.454;2023-01-25T04:07:45;20.90;;;18.30;;
32812;SDS011;19162;48.254;11.454;2023-01-25T04:10:55;22.20;;;19.77;;
32812;SDS011;19162;48.254;11.454;2023-01-25T04:13:56;20.38;;;18.33;;
32812;SDS011;19162;48.254;11.454;2023-01-25T04:16:56;21.48;;;19.17;;
32812;SDS011;19162;48.254;11.454;2023-01-25T04:19:56;19.80;;;17.85;;
32812;SDS011;19162;48.254;11.454;2023-01-25T04:22:56;21.30;;;19.00;;
32812;SDS011;19162;48.254;11.454;2023-01-25T04:25:58;21.63;;;19.33;;
32812;SDS011;19162;48.254;11.454;2023-01-25T04:28:58;19.88;;;17.88;;
32812;SDS011;19162;48.254;11.454;2023-01-25T04:31:58;18.50;;;16.75;;
32812;SDS011;19162;48.254;11.454;2023-01-25T04:34:58;20.40;;;18.20;;
32812;SDS011;19162;48.254;11.454;2023-01-25T04:37:59;18.95;;;17.10;;
32812;SDS011;19162;48.254;11.454;2023-01-25T04:40:59;19.73;;;17.83;;
32812;SDS011;19162;48.254;11.454;2023-01-25T04:43:59;20.70;;;18.60;;
32812;SDS011;19162;48.254;11.454;2023-01-25T04:46:59;19.42;;;17.42;;
32812;SDS011;19162;48.254;11.454;2023-01-25T04:50:00;17.95;;;16.27;;
32812;SDS011;19162;48.254;11.454;2023-01-25T04:53:00;18.80;;;16.90;;
32812;SDS011;19162;48.254;11.454;2023-01-25T04:56:00;18.70;;;16.90;;
32812;SDS011;19162;48.254;11.454;2023-01-25T04:59:00;18.93;;;17.13;;
32812;SDS011;19162;48.254;11.454;2023-01-25T05:02:00;18.50;;;16.53;;
32812;SDS011;19162;48.254;11.454;2023-01-25T05:05:01;19.50;;;17.55;;
32812;SDS011;19162;48.254;11.454;2023-01-25T05:08:01;16.92;;;15.27;;
32812;SDS011;19162;48.254;11.454;2023-01-25T05:11:01;18.13;;;16.33;;
32812;SDS011;19162;48.254;11.454;2023-01-25T05:14:01;18.00;;;16.25;;
32812;SDS011;19162;48.254;11.454;2023-01-25T05:17:01;17.97;;;16.17;;
32812;SDS011;19162;48.254;11.454;2023-01-25T05:20:02;18.17;;;16.38;;
32812;SDS011;19162;48.254;11.454;2023-01-25T05:23:02;19.10;;;16.90;;
32812;SDS011;19162;48.254;11.454;2023-01-25T05:26:02;19.23;;;17.33;;
32812;SDS011;19162;48.254;11.454;2023-01-25T05:29:21;20.13;;;18.13;;
32812;SDS011;19162;48.254;11.454;2023-01-25T05:32:22;18.45;;;16.65;;
32812;SDS011;19162;48.254;11.454;2023-01-25T05:35:22;18.25;;;16.42;;
32812;SDS011;19162;48.254;11.454;2023-01-25T05:38:22;18.75;;;16.85;;
32812;SDS011;19162;48.254;11.454;2023-01-25T05:41:22;18.05;;;16.33;;
32812;SDS011;19162;48.254;11.454;2023-01-25T05:44:23;18.90;;;16.87;;
32812;SDS011;19162;48.254;11.454;2023-01-25T05:47:23;17.48;;;15.88;;
32812;SDS011;19162;48.254;11.454;2023-01-25T05:50:24;17.23;;;15.57;;
32812;SDS011;19162;48.254;11.454;2023-01-25T05:53:25;17.38;;;15.60;;
32812;SDS011;19162;48.254;11.454;2023-01-25T05:56:25;17.33;;;15.73;;
32812;SDS011;19162;48.254;11.454;2023-01-25T05:59:25;18.30;;;16.60;;
32812;SDS011;19162;48.254;11.454;2023-01-25T06:02:25;20.50;;;18.50;;
32812;SDS011;19162;48.254;11.454;2023-01-25T06:05:25;21.48;;;18.98;;
32812;SDS011;19162;48.254;11.454;2023-01-25T06:08:26;19.65;;;17.65;;
32812;SDS011;19162;48.254;11.454;2023-01-25T06:11:26;19.38;;;17.48;;
32812;SDS011;19162;48.254;11.454;2023-01-25T06:14:26;18.60;;;16.80;;
32812;SDS011;19162;48.254;11.454;2023-01-25T06:17:26;20.17;;;18.17;;
32812;SDS011;19162;48.254;11.454;2023-01-25T06:20:27;19.45;;;16.65;;
32812;SDS011;19162;48.254;11.454;2023-01-25T06:23:27;18.92;;;16.92;;
32812;SDS011;19162;48.254;11.454;2023-01-25T06:26:27;19.30;;;17.35;;
32812;SDS011;19162;48.254;11.454;2023-01-25T06:29:27;20.10;;;18.15;;
32812;SDS011;19162;48.254;11.454;2023-01-25T06:32:30;20.02;;;17.98;;
32812;SDS011;19162;48.254;11.454;2023-01-25T06:35:31;19.70;;;17.75;;
32812;SDS011;19162;48.254;11.454;2023-01-25T06:38:32;20.10;;;18.00;;
32812;SDS011;19162;48.254;11.454;2023-01-25T06:41:32;19.40;;;17.52;;
32812;SDS011;19162;48.254;11.454;2023-01-25T06:44:32;19.90;;;17.88;;
32812;SDS011;19162;48.254;11.454;2023-01-25T06:47:33;21.60;;;19.40;;
32812;SDS011;19162;48.254;11.454;2023-01-25T06:50:34;20.20;;;18.17;;
32812;SDS011;19162;48.254;11.454;2023-01-25T06:53:35;18.75;;;16.75;;
32812;SDS011;19162;48.254;11.454;2023-01-25T06:56:35;15.48;;;14.02;;
32812;SDS011;19162;48.254;11.454;2023-01-25T06:59:35;13.90;;;12.60;;
32812;SDS011;19162;48.254;11.454;2023-01-25T07:02:36;14.37;;;13.17;;
32812;SDS011;19162;48.254;11.454;2023-01-25T07:05:36;15.03;;;13.63;;
32812;SDS011;19162;48.254;11.454;2023-01-25T07:08:36;12.87;;;11.73;;
32812;SDS011;19162;48.254;11.454;2023-01-25T07:11:37;14.13;;;12.85;;
32812;SDS011;19162;48.254;11.454;2023-01-25T07:14:37;14.70;;;13.27;;
32812;SDS011;19162;48.254;11.454;2023-01-25T07:17:37;13.80;;;12.48;;
32812;SDS011;19162;48.254;11.454;2023-01-25T07:20:37;15.68;;;13.98;;
32812;SDS011;19162;48.254;11.454;2023-01-25T07:23:38;12.13;;;10.93;;
32812;SDS011;19162;48.254;11.454;2023-01-25T07:26:38;11.90;;;10.60;;
32812;SDS011;19162;48.254;11.454;2023-01-25T07:29:38;12.75;;;11.55;;
32812;SDS011;19162;48.254;11.454;2023-01-25T07:32:40;12.95;;;11.75;;
32812;SDS011;19162;48.254;11.454;2023-01-25T07:35:40;13.50;;;11.52;;
32812;SDS011;19162;48.254;11.454;2023-01-25T07:38:40;16.52;;;14.85;;
32812;SDS011;19162;48.254;11.454;2023-01-25T07:41:40;14.03;;;12.63;;
32812;SDS011;19162;48.254;11.454;2023-01-25T07:44:41;12.40;;;11.20;;
32812;SDS011;19162;48.254;11.454;2023-01-25T07:47:41;12.70;;;11.50;;
32812;SDS011;19162;48.254;11.454;2023-01-25T07:50:41;13.33;;;12.23;;
32812;SDS011;19162;48.254;11.454;2023-01-25T07:53:42;12.82;;;11.48;;
32812;SDS011;19162;48.254;11.454;2023-01-25T07:56:42;13.00;;;11.65;;
32812;SDS011;19162;48.254;11.454;2023-01-25T07:59:43;13.23;;;11.98;;
32812;SDS011;19162;48.254;11.454;2023-01-25T08:02:43;11.75;;;10.65;;
32812;SDS011;19162;48.254;11.454;2023-01-25T08:05:43;13.13;;;11.85;;
32812;SDS011;19162;48.254;11.454;2023-01-25T08:08:45;12.32;;;11.02;;
32812;SDS011;19162;48.254;11.454;2023-01-25T08:11:45;13.75;;;12.35;;
32812;SDS011;19162;48.254;11.454;2023-01-25T08:14:46;14.07;;;12.68;;
32812;SDS011;19162;48.254;11.454;2023-01-25T08:17:48;13.63;;;12.23;;
32812;SDS011;19162;48.254;11.454;2023-01-25T08:20:48;12.55;;;11.35;;
32812;SDS011;19162;48.254;11.454;2023-01-25T08:23:49;13.68;;;12.27;;
32812;SDS011;19162;48.254;11.454;2023-01-25T08:26:49;11.77;;;10.65;;
32812;SDS011;19162;48.254;11.454;2023-01-25T08:29:49;13.15;;;11.85;;
32812;SDS011;19162;48.254;11.454;2023-01-25T08:32:49;12.57;;;11.27;;
32812;SDS011;19162;48.254;11.454;2023-01-25T08:35:53;10.97;;;9.87;;
32812;SDS011;19162;48.254;11.454;2023-01-25T08:38:58;12.90;;;11.60;;
32812;SDS011;19162;48.254;11.454;2023-01-25T08:41:58;12.73;;;11.43;;
32812;SDS011;19162;48.254;11.454;2023-01-25T08:44:59;13.93;;;12.02;;
32812;SDS011;19162;48.254;11.454;2023-01-25T08:47:59;14.10;;;12.70;;
32812;SDS011;19162;48.254;11.454;2023-01-25T08:50:59;12.27;;;11.17;;
32812;SDS011;19162;48.254;11.454;2023-01-25T08:54:03;12.80;;;11.60;;
32812;SDS011;19162;48.254;11.454;2023-01-25T08:57:04;12.20;;;11.00;;
32812;SDS011;19162;48.254;11.454;2023-01-25T09:00:05;11.85;;;10.65;;
32812;SDS011;19162;48.254;11.454;2023-01-25T09:03:05;12.38;;;11.18;;
32812;SDS011;19162;48.254;11.454;2023-01-25T09:06:06;12.02;;;10.93;;
32812;SDS011;19162;48.254;11.454;2023-01-25T09:09:07;13.57;;;12.20;;
32812;SDS011;19162;48.254;11.454;2023-01-25T09:12:08;14.43;;;13.02;;
32812;SDS011;19162;48.254;11.454;2023-01-25T09:15:08;13.98;;;12.65;;
32812;SDS011;19162;48.254;11.454;2023-01-25T09:18:08;13.88;;;11.98;;
32812;SDS011;19162;48.254;11.454;2023-01-25T09:21:10;14.32;;;12.93;;
32812;SDS011;19162;48.254;11.454;2023-01-25T09:27:12;14.98;;;13.57;;
32812;SDS011;19162;48.254;11.454;2023-01-25T09:30:12;15.13;;;13.63;;
32812;SDS011;19162;48.254;11.454;2023-01-25T09:33:12;14.85;;;13.45;;
32812;SDS011;19162;48.254;11.454;2023-01-25T09:36:15;15.35;;;13.90;;
32812;SDS011;19162;48.254;11.454;2023-01-25T09:39:15;14.87;;;13.40;;
32812;SDS011;19162;48.254;11.454;2023-01-25T09:45:32;17.13;;;15.45;;
32812;SDS011;19162;48.254;11.454;2023-01-25T09:48:46;16.13;;;14.52;;
32812;SDS011;19162;48.254;11.454;2023-01-25T09:54:50;17.85;;;16.23;;
32812;SDS011;19162;48.254;11.454;2023-01-25T09:57:50;19.52;;;17.65;;
32812;SDS011;19162;48.254;11.454;2023-01-25T10:00:54;19.50;;;17.40;;
32812;SDS011;19162;48.254;11.454;2023-01-25T10:04:10;19.73;;;17.75;;
32812;SDS011;19162;48.254;11.454;2023-01-25T10:13:43;20.55;;;18.45;;
32812;SDS011;19162;48.254;11.454;2023-01-25T10:26:24;22.48;;;20.20;;
32812;SDS011;19162;48.254;11.454;2023-01-25T10:29:32;23.52;;;20.73;;
32812;SDS011;19162;48.254;11.454;2023-01-25T10:32:34;24.50;;;22.00;;
32812;SDS011;19162;48.254;11.454;2023-01-25T10:35:35;29.93;;;22.90;;
32812;SDS011;19162;48.254;11.454;2023-01-25T10:38:40;22.47;;;20.07;;
32812;SDS011;19162;48.254;11.454;2023-01-25T10:41:42;22.48;;;20.27;;
32812;SDS011;19162;48.254;11.454;2023-01-25T10:44:43;21.83;;;19.63;;
32812;SDS011;19162;48.254;11.454;2023-01-25T10:47:47;22.10;;;19.70;;
32812;SDS011;19162;48.254;11.454;2023-01-25T10:50:52;22.45;;;19.58;;
32812;SDS011;19162;48.254;11.454;2023-01-25T10:53:57;21.98;;;19.63;;
32812;SDS011;19162;48.254;11.454;2023-01-25T10:56:57;20.98;;;18.80;;
32812;SDS011;19162;48.254;11.454;2023-01-25T10:59:58;25.37;;;22.67;;
32812;SDS011;19162;48.254;11.454;2023-01-25T11:02:59;25.20;;;22.55;;
32812;SDS011;19162;48.254;11.454;2023-01-25T11:05:59;21.90;;;19.65;;
32812;SDS011;19162;48.254;11.454;2023-01-25T11:09:00;22.63;;;20.23;;
32812;SDS011;19162;48.254;11.454;2023-01-25T11:12:02;24.48;;;20.90;;
32812;SDS011;19162;48.254;11.454;2023-01-25T11:15:21;24.48;;;21.88;;
32812;SDS011;19162;48.254;11.454;2023-01-25T11:18:23;52.35;;;46.70;;
32812;SDS011;19162;48.254;11.454;2023-01-25T11:21:33;26.42;;;22.90;;
32812;SDS011;19162;48.254;11.454;2023-01-25T11:24:34;33.05;;;28.52;;
32812;SDS011;19162;48.254;11.454;2023-01-25T11:27:34;26.02;;;23.27;;
32812;SDS011;19162;48.254;11.454;2023-01-25T11:30:35;27.75;;;24.55;;
32812;SDS011;19162;48.254;11.454;2023-01-25T11:33:35;29.25;;;26.13;;
32812;SDS011;19162;48.254;11.454;2023-01-25T11:43:06;30.67;;;27.40;;
32812;SDS011;19162;48.254;11.454;2023-01-25T11:49:24;29.45;;;26.35;;
32812;SDS011;19162;48.254;11.454;2023-01-25T12:01:56;26.35;;;23.52;;
32812;SDS011;19162;48.254;11.454;2023-01-25T12:05:07;25.38;;;22.70;;
32812;SDS011;19162;48.254;11.454;2023-01-25T12:11:39;24.88;;;22.27;;
32812;SDS011;19162;48.254;11.454;2023-01-25T12:14:58;25.13;;;22.40;;
32812;SDS011;19162;48.254;11.454;2023-01-25T12:21:23;23.85;;;20.98;;
32812;SDS011;19162;48.254;11.454;2023-01-25T12:24:33;24.10;;;21.60;;
32812;SDS011;19162;48.254;11.454;2023-01-25T12:30:50;22.30;;;20.10;;
32812;SDS011;19162;48.254;11.454;2023-01-25T12:34:07;24.60;;;22.05;;
32812;SDS011;19162;48.254;11.454;2023-01-25T12:37:15;22.70;;;20.48;;
32812;SDS011;19162;48.254;11.454;2023-01-25T12:40:20;23.35;;;21.05;;
32812;SDS011;19162;48.254;11.454;2023-01-25T12:43:24;22.80;;;20.45;;
32812;SDS011;19162;48.254;11.454;2023-01-25T12:46:30;21.67;;;19.48;;
32812;SDS011;19162;48.254;11.454;2023-01-25T12:52:35;22.08;;;19.77;;
32812;SDS011;19162;48.254;11.454;2023-01-25T12:55:36;22.63;;;20.40;;
32812;SDS011;19162;48.254;11.454;2023-01-25T12:58:42;23.80;;;21.30;;
32812;SDS011;19162;48.254;11.454;2023-01-25T13:01:45;23.10;;;20.80;;
32812;SDS011;19162;48.254;11.454;2023-01-25T13:05:01;23.00;;;20.50;;
32812;SDS011;19162;48.254;11.454;2023-01-25T13:08:05;21.48;;;19.27;;
32812;SDS011;19162;48.254;11.454;2023-01-25T13:11:15;22.35;;;20.15;;
32812;SDS011;19162;48.254;11.454;2023-01-25T13:14:28;22.63;;;19.73;;
32812;SDS011;19162;48.254;11.454;2023-01-25T13:17:31;21.27;;;19.02;;
32812;SDS011;19162;48.254;11.454;2023-01-25T13:29:57;25.77;;;22.85;;
32812;SDS011;19162;48.254;11.454;2023-01-25T13:33:01;25.48;;;22.88;;
32812;SDS011;19162;48.254;11.454;2023-01-25T13:36:35;25.70;;;23.02;;
32812;SDS011;19162;48.254;11.454;2023-01-25T13:42:32;29.25;;;26.17;;
32812;SDS011;19162;48.254;11.454;2023-01-25T13:45:34;27.25;;;23.95;;
32812;SDS011;19162;48.254;11.454;2023-01-25T13:48:35;25.65;;;23.05;;
32812;SDS011;19162;48.254;11.454;2023-01-25T13:51:42;25.52;;;22.58;;
32812;SDS011;19162;48.254;11.454;2023-01-25T13:54:43;25.17;;;22.35;;
32812;SDS011;19162;48.254;11.454;2023-01-25T13:57:43;25.25;;;22.55;;
32812;SDS011;19162;48.254;11.454;2023-01-25T14:00:54;23.92;;;21.33;;
32812;SDS011;19162;48.254;11.454;2023-01-25T14:03:55;23.33;;;20.85;;
32812;SDS011;19162;48.254;11.454;2023-01-25T14:06:58;24.20;;;21.38;;
32812;SDS011;19162;48.254;11.454;2023-01-25T14:09:59;24.83;;;22.13;;
32812;SDS011;19162;48.254;11.454;2023-01-25T14:13:00;26.00;;;23.30;;
32812;SDS011;19162;48.254;11.454;2023-01-25T14:16:01;25.30;;;21.67;;
32812;SDS011;19162;48.254;11.454;2023-01-25T14:22:35;24.70;;;21.73;;
32812;SDS011;19162;48.254;11.454;2023-01-25T14:25:38;23.85;;;21.00;;
32812;SDS011;19162;48.254;11.454;2023-01-25T14:31:39;23.73;;;20.95;;
32812;SDS011;19162;48.254;11.454;2023-01-25T14:34:39;23.13;;;20.63;;
32812;SDS011;19162;48.254;11.454;2023-01-25T14:37:42;23.70;;;20.50;;
32812;SDS011;19162;48.254;11.454;2023-01-25T14:40:42;25.70;;;21.35;;
32812;SDS011;19162;48.254;11.454;2023-01-25T14:43:44;25.10;;;22.27;;
32812;SDS011;19162;48.254;11.454;2023-01-25T14:46:45;24.73;;;21.03;;
32812;SDS011;19162;48.254;11.454;2023-01-25T14:49:45;21.60;;;19.37;;
32812;SDS011;19162;48.254;11.454;2023-01-25T14:52:45;29.30;;;25.67;;
32812;SDS011;19162;48.254;11.454;2023-01-25T14:55:45;26.92;;;24.05;;
32812;SDS011;19162;48.254;11.454;2023-01-25T14:58:46;26.40;;;23.00;;
32812;SDS011;19162;48.254;11.454;2023-01-25T15:01:47;26.53;;;23.67;;
32812;SDS011;19162;48.254;11.454;2023-01-25T15:10:55;26.77;;;23.48;;
32812;SDS011;19162;48.254;11.454;2023-01-25T15:14:03;25.25;;;22.52;;
32812;SDS011;19162;48.254;11.454;2023-01-25T15:17:34;24.33;;;20.95;;
32812;SDS011;19162;48.254;11.454;2023-01-25T15:20:36;24.70;;;22.02;;
32812;SDS011;19162;48.254;11.454;2023-01-25T15:23:36;24.05;;;21.55;;
32812;SDS011;19162;48.254;11.454;2023-01-25T15:26:36;22.33;;;19.97;;
32812;SDS011;19162;48.254;11.454;2023-01-25T15:29:36;19.30;;;17.25;;
32812;SDS011;19162;48.254;11.454;2023-01-25T15:32:38;19.48;;;17.35;;
32812;SDS011;19162;48.254;11.454;2023-01-25T15:35:38;20.87;;;18.03;;
32812;SDS011;19162;48.254;11.454;2023-01-25T15:38:39;19.60;;;16.70;;
32812;SDS011;19162;48.254;11.454;2023-01-25T15:41:40;18.40;;;16.15;;
32812;SDS011;19162;48.254;11.454;2023-01-25T15:44:40;18.63;;;16.75;;
32812;SDS011;19162;48.254;11.454;2023-01-25T15:47:40;26.52;;;23.70;;
32812;SDS011;19162;48.254;11.454;2023-01-25T15:50:40;18.70;;;16.70;;
32812;SDS011;19162;48.254;11.454;2023-01-25T15:53:41;17.35;;;15.55;;
32812;SDS011;19162;48.254;11.454;2023-01-25T15:56:41;17.40;;;15.63;;
32812;SDS011;19162;48.254;11.454;2023-01-25T15:59:42;18.40;;;16.58;;
32812;SDS011;19162;48.254;11.454;2023-01-25T16:02:42;20.17;;;16.95;;
32812;SDS011;19162;48.254;11.454;2023-01-25T16:05:43;19.58;;;17.55;;
32812;SDS011;19162;48.254;11.454;2023-01-25T16:08:43;18.08;;;16.25;;
32812;SDS011;19162;48.254;11.454;2023-01-25T16:11:43;20.05;;;17.95;;
32812;SDS011;19162;48.254;11.454;2023-01-25T16:14:44;19.83;;;17.80;;
32812;SDS011;19162;48.254;11.454;2023-01-25T16:17:44;20.52;;;18.27;;
32812;SDS011;19162;48.254;11.454;2023-01-25T16:20:44;20.77;;;18.63;;
32812;SDS011;19162;48.254;11.454;2023-01-25T16:23:45;25.03;;;20.27;;
32812;SDS011;19162;48.254;11.454;2023-01-25T16:29:48;23.55;;;20.08;;
32812;SDS011;19162;48.254;11.454;2023-01-25T16:32:48;21.30;;;19.10;;
32812;SDS011;19162;48.254;11.454;2023-01-25T16:36:02;22.60;;;19.20;;
32812;SDS011;19162;48.254;11.454;2023-01-25T16:39:16;21.80;;;19.30;;
32812;SDS011;19162;48.254;11.454;2023-01-25T16:42:19;22.83;;;19.95;;
32812;SDS011;19162;48.254;11.454;2023-01-25T16:45:19;21.20;;;18.90;;
32812;SDS011;19162;48.254;11.454;2023-01-25T16:48:19;21.67;;;19.17;;
32812;SDS011;19162;48.254;11.454;2023-01-25T16:51:21;22.42;;;18.23;;
32812;SDS011;19162;48.254;11.454;2023-01-25T16:54:22;19.95;;;17.85;;
32812;SDS011;19162;48.254;11.454;2023-01-25T16:57:22;20.20;;;18.05;;
32812;SDS011;19162;48.254;11.454;2023-01-25T17:00:22;19.52;;;17.52;;
32812;SDS011;19162;48.254;11.454;2023-01-25T17:03:22;21.57;;;18.13;;
32812;SDS011;19162;48.254;11.454;2023-01-25T17:06:24;21.47;;;18.07;;
32812;SDS011;19162;48.254;11.454;2023-01-25T17:09:25;20.37;;;17.63;;
32812;SDS011;19162;48.254;11.454;2023-01-25T17:12:25;21.70;;;17.88;;
32812;SDS011;19162;48.254;11.454;2023-01-25T17:15:25;20.80;;;17.98;;
32812;SDS011;19162;48.254;11.454;2023-01-25T17:18:26;19.77;;;17.67;;
32812;SDS011;19162;48.254;11.454;2023-01-25T17:21:26;20.13;;;16.85;;
32812;SDS011;19162;48.254;11.454;2023-01-25T17:24:26;19.87;;;17.73;;
32812;SDS011;19162;48.254;11.454;2023-01-25T17:27:27;20.90;;;18.42;;
32812;SDS011;19162;48.254;11.454;2023-01-25T17:30:28;21.10;;;17.90;;
32812;SDS011;19162;48.254;11.454;2023-01-25T17:33:28;19.75;;;17.65;;
32812;SDS011;19162;48.254;11.454;2023-01-25T17:36:28;18.67;;;16.88;;
32812;SDS011;19162;48.254;11.454;2023-01-25T17:39:28;17.08;;;15.35;;
32812;SDS011;19162;48.254;11.454;2023-01-25T17:42:29;20.03;;;16.60;;
32812;SDS011;19162;48.254;11.454;2023-01-25T17:45:29;18.63;;;16.63;;
32812;SDS011;19162;48.254;11.454;2023-01-25T17:48:30;19.30;;;17.30;;
32812;SDS011;19162;48.254;11.454;2023-01-25T17:51:30;18.13;;;16.33;;
32812;SDS011;19162;48.254;11.454;2023-01-25T17:54:32;19.15;;;17.15;;
32812;SDS011;19162;48.254;11.454;2023-01-25T17:57:32;19.27;;;17.10;;
32812;SDS011;19162;48.254;11.454;2023-01-25T18:00:34;18.17;;;16.27;;
32812;SDS011;19162;48.254;11.454;2023-01-25T18:03:34;18.73;;;16.73;;
32812;SDS011;19162;48.254;11.454;2023-01-25T18:06:36;18.48;;;16.40;;
32812;SDS011;19162;48.254;11.454;2023-01-25T18:09:36;16.98;;;15.07;;
32812;SDS011;19162;48.254;11.454;2023-01-25T18:12:37;17.77;;;16.02;;
32812;SDS011;19162;48.254;11.454;2023-01-25T18:15:37;18.73;;;16.93;;
32812;SDS011;19162;48.254;11.454;2023-01-25T18:18:38;16.98;;;15.25;;
32812;SDS011;19162;48.254;11.454;2023-01-25T18:21:38;16.98;;;15.38;;
32812;SDS011;19162;48.254;11.454;2023-01-25T18:24:40;16.90;;;14.63;;
32812;SDS011;19162;48.254;11.454;2023-01-25T18:27:42;19.35;;;16.10;;
32812;SDS011;19162;48.254;11.454;2023-01-25T18:30:48;18.73;;;16.52;;
32812;SDS011;19162;48.254;11.454;2023-01-25T18:33:50;18.50;;;16.58;;
32812;SDS011;19162;48.254;11.454;2023-01-25T18:36:50;20.90;;;18.30;;
32812;SDS011;19162;48.254;11.454;2023-01-25T18:39:51;19.48;;;17.48;;
32812;SDS011;19162;48.254;11.454;2023-01-25T18:42:52;19.85;;;17.65;;
32812;SDS011;19162;48.254;11.454;2023-01-25T18:45:53;18.92;;;16.83;;
32812;SDS011;19162;48.254;11.454;2023-01-25T18:48:54;19.17;;;17.03;;
32812;SDS011;19162;48.254;11.454;2023-01-25T18:51:54;19.00;;;17.17;;
32812;SDS011;19162;48.254;11.454;2023-01-25T18:54:55;22.10;;;18.77;;
32812;SDS011;19162;48.254;11.454;2023-01-25T18:57:56;20.98;;;18.55;;
32812;SDS011;19162;48.254;11.454;2023-01-25T19:01:06;18.40;;;16.30;;
32812;SDS011;19162;48.254;11.454;2023-01-25T19:04:07;19.77;;;17.67;;